createdAt,value
2017-12-06T00:00:57.210Z,28.3
2017-12-06T00:02:00.444Z,28.3
2017-12-06T00:03:00.533Z,28.3
2017-12-06T00:03:57.659Z,28.3
2017-12-06T00:05:00.601Z,28.4
2017-12-06T00:05:57.842Z,28.3
2017-12-06T00:06:57.776Z,28.3
2017-12-06T00:07:57.845Z,28.3
2017-12-06T00:09:00.455Z,28.3
2017-12-06T00:09:57.660Z,28.3
2017-12-06T00:10:57.731Z,28.3
2017-12-06T00:11:57.786Z,28.3
2017-12-06T00:13:01.087Z,28.3
2017-12-06T00:13:58.272Z,28.3
2017-12-06T00:14:58.357Z,28.3
2017-12-06T00:15:58.357Z,28.3
2017-12-06T00:16:58.194Z,28.3
2017-12-06T00:18:01.141Z,28.3
2017-12-06T00:18:58.290Z,28.3
2017-12-06T00:19:58.682Z,28.3
2017-12-06T00:21:01.554Z,28.3
2017-12-06T00:21:58.440Z,28.3
2017-12-06T00:23:01.670Z,28.3
2017-12-06T00:24:01.381Z,28.3
2017-12-06T00:24:58.554Z,28.3
2017-12-06T00:26:01.733Z,28.3
2017-12-06T00:26:58.864Z,28.3
2017-12-06T00:27:58.607Z,28.3
2017-12-06T00:29:01.758Z,28.3
2017-12-06T00:29:59.027Z,28.3
2017-12-06T00:30:59.043Z,28.3
2017-12-06T00:31:59.086Z,28.3
2017-12-06T00:33:01.732Z,28.3
2017-12-06T00:33:58.887Z,28.3
2017-12-06T00:34:59.200Z,28.3
2017-12-06T00:35:58.900Z,28.3
2017-12-06T00:37:01.853Z,28.3
2017-12-06T00:38:02.210Z,28.3
2017-12-06T00:38:59.344Z,28.3
2017-12-06T00:39:59.354Z,28.3
2017-12-06T00:41:04.323Z,28.3
2017-12-06T00:42:02.358Z,28.3
2017-12-06T00:43:02.030Z,28.3
2017-12-06T00:44:02.399Z,28.3
2017-12-06T00:44:59.248Z,28.3
2017-12-06T00:45:59.325Z,28.3
2017-12-06T00:47:02.617Z,28.3
2017-12-06T00:47:59.395Z,28.3
2017-12-06T00:48:59.791Z,28.2
2017-12-06T00:49:59.560Z,28.2
2017-12-06T00:50:59.889Z,28.3
2017-12-06T00:52:02.877Z,28.3
2017-12-06T00:53:02.615Z,28.3
2017-12-06T00:54:02.669Z,28.3
2017-12-06T00:55:00.125Z,28.3
2017-12-06T00:56:00.167Z,28.2
2017-12-06T00:57:00.309Z,28.2
2017-12-06T00:58:03.225Z,28.3
2017-12-06T00:59:03.765Z,28.3
2017-12-06T01:00:03.330Z,28.3
2017-12-06T01:01:03.039Z,28.3
2017-12-06T01:02:03.399Z,28.3
2017-12-06T01:03:03.427Z,28.3
2017-12-06T01:04:03.402Z,28.3
2017-12-06T01:05:03.439Z,28.3
2017-12-06T01:06:03.503Z,28.3
2017-12-06T01:07:00.377Z,28.3
2017-12-06T01:08:00.476Z,28.3
2017-12-06T01:09:03.725Z,28.3
2017-12-06T01:10:00.862Z,28.3
2017-12-06T01:11:00.960Z,28.3
2017-12-06T01:12:00.712Z,28.3
2017-12-06T01:13:03.635Z,28.3
2017-12-06T01:14:03.724Z,28.3
2017-12-06T01:15:04.091Z,28.3
2017-12-06T01:16:04.892Z,28.2
2017-12-06T01:17:04.178Z,28.3
2017-12-06T01:18:04.174Z,28.3
2017-12-06T01:19:01.624Z,28.3
2017-12-06T01:20:04.570Z,28.2
2017-12-06T01:21:04.009Z,28.2
2017-12-06T01:22:04.071Z,28.3
2017-12-06T01:23:01.222Z,28.3
2017-12-06T01:24:01.581Z,28.3
2017-12-06T01:25:01.354Z,28.3
2017-12-06T01:26:04.341Z,28.2
2017-12-06T01:27:04.706Z,28.3
2017-12-06T01:28:01.802Z,28.3
2017-12-06T01:29:04.722Z,28.2
2017-12-06T01:30:04.775Z,28.3
2017-12-06T01:31:01.698Z,28.3
2017-12-06T01:32:04.508Z,28.3
2017-12-06T01:33:04.873Z,28.2
2017-12-06T01:34:04.660Z,28.3
2017-12-06T01:35:02.068Z,28.3
2017-12-06T01:36:04.708Z,28.3
2017-12-06T01:37:02.116Z,28.3
2017-12-06T01:38:01.948Z,28.3
2017-12-06T01:39:05.175Z,28.3
2017-12-06T01:40:02.074Z,28.2
2017-12-06T01:41:04.936Z,28.3
2017-12-06T01:42:02.437Z,28.3
2017-12-06T01:43:02.196Z,28.3
2017-12-06T01:44:02.652Z,28.3
2017-12-06T01:45:05.355Z,28.2
2017-12-06T01:46:05.878Z,28.2
2017-12-06T01:47:02.829Z,28.3
2017-12-06T01:48:02.803Z,28.3
2017-12-06T01:49:05.427Z,28.2
2017-12-06T01:50:05.456Z,28.2
2017-12-06T01:51:02.960Z,28.3
2017-12-06T01:52:05.551Z,28.2
2017-12-06T01:53:03.004Z,28.2
2017-12-06T01:54:05.604Z,28.3
2017-12-06T01:55:05.640Z,28.3
2017-12-06T01:56:05.666Z,28.3
2017-12-06T01:57:05.708Z,28.3
2017-12-06T01:58:02.918Z,28.3
2017-12-06T01:59:02.914Z,28.3
2017-12-06T02:00:02.978Z,28.3
2017-12-06T02:01:03.255Z,28.2
2017-12-06T02:02:05.929Z,28.3
2017-12-06T02:03:05.948Z,28.2
2017-12-06T02:04:05.988Z,28.2
2017-12-06T02:05:03.173Z,28.2
2017-12-06T02:06:03.617Z,28.2
2017-12-06T02:07:06.243Z,28.2
2017-12-06T02:08:03.691Z,28.2
2017-12-06T02:09:03.433Z,28.2
2017-12-06T02:10:06.440Z,28.2
2017-12-06T02:11:03.952Z,28.2
2017-12-06T02:12:05.158Z,28.2
2017-12-06T02:13:04.023Z,28.2
2017-12-06T02:14:06.636Z,28.2
2017-12-06T02:15:03.865Z,28.2
2017-12-06T02:16:04.239Z,28.2
2017-12-06T02:17:04.238Z,28.2
2017-12-06T02:18:07.090Z,28.2
2017-12-06T02:19:07.157Z,28.2
2017-12-06T02:20:06.905Z,28.2
2017-12-06T02:21:04.056Z,28.2
2017-12-06T02:22:06.962Z,28.2
2017-12-06T02:23:06.996Z,28.2
2017-12-06T02:24:07.349Z,28.2
2017-12-06T02:25:04.510Z,28.2
2017-12-06T02:26:04.259Z,28.2
2017-12-06T02:27:04.566Z,28.2
2017-12-06T02:28:04.342Z,28.2
2017-12-06T02:29:07.228Z,28.2
2017-12-06T02:30:07.276Z,28.2
2017-12-06T02:31:04.377Z,28.2
2017-12-06T02:32:07.376Z,28.2
2017-12-06T02:33:07.715Z,28.2
2017-12-06T02:34:04.919Z,28.2
2017-12-06T02:35:04.951Z,28.2
2017-12-06T02:36:04.978Z,28.2
2017-12-06T02:37:07.640Z,28.2
2017-12-06T02:38:07.989Z,28.2
2017-12-06T02:39:07.722Z,28.2
2017-12-06T02:40:08.065Z,28.2
2017-12-06T02:41:05.308Z,28.2
2017-12-06T02:42:05.368Z,28.2
2017-12-06T02:43:08.255Z,28.2
2017-12-06T02:44:05.176Z,28.2
2017-12-06T02:45:05.495Z,28.2
2017-12-06T02:46:05.494Z,28.2
2017-12-06T02:47:08.489Z,28.2
2017-12-06T02:48:08.541Z,28.2
2017-12-06T02:49:08.275Z,28.2
2017-12-06T02:50:05.460Z,28.2
2017-12-06T02:51:05.792Z,28.2
2017-12-06T02:52:05.536Z,28.2
2017-12-06T02:53:05.536Z,28.2
2017-12-06T02:54:08.871Z,28.2
2017-12-06T02:55:05.739Z,28.2
2017-12-06T02:56:05.810Z,28.2
2017-12-06T02:57:05.888Z,28.2
2017-12-06T02:58:06.255Z,28.2
2017-12-06T02:59:08.858Z,28.2
2017-12-06T03:00:06.046Z,28.2
2017-12-06T03:01:06.424Z,28.2
2017-12-06T03:02:06.423Z,28.2
2017-12-06T03:03:09.053Z,28.2
2017-12-06T03:04:06.240Z,28.2
2017-12-06T03:05:06.597Z,28.2
2017-12-06T03:06:09.496Z,28.2
2017-12-06T03:07:06.417Z,28.2
2017-12-06T03:08:06.743Z,28.2
2017-12-06T03:09:06.748Z,28.2
2017-12-06T03:10:06.549Z,28.2
2017-12-06T03:11:09.519Z,28.1
2017-12-06T03:12:09.820Z,28.2
2017-12-06T03:13:06.730Z,28.2
2017-12-06T03:14:10.915Z,28.1
2017-12-06T03:15:07.064Z,28.2
2017-12-06T03:16:09.682Z,28.2
2017-12-06T03:17:06.890Z,28.1
2017-12-06T03:18:10.119Z,28.2
2017-12-06T03:19:06.979Z,28.2
2017-12-06T03:20:10.198Z,28.2
2017-12-06T03:21:10.248Z,28.2
2017-12-06T03:22:10.006Z,28.2
2017-12-06T03:23:10.072Z,28.2
2017-12-06T03:24:10.103Z,28.2
2017-12-06T03:25:07.526Z,28.2
2017-12-06T03:26:07.355Z,28.2
2017-12-06T03:27:07.699Z,28.1
2017-12-06T03:28:10.330Z,28.2
2017-12-06T03:29:07.534Z,28.2
2017-12-06T03:30:07.601Z,28.2
2017-12-06T03:31:10.439Z,28.2
2017-12-06T03:32:07.713Z,28.1
2017-12-06T03:33:07.742Z,28.2
2017-12-06T03:34:10.620Z,28.2
2017-12-06T03:35:07.830Z,28.2
2017-12-06T03:36:11.098Z,28.2
2017-12-06T03:37:10.775Z,28.1
2017-12-06T03:38:08.207Z,28.2
2017-12-06T03:39:08.293Z,28.2
2017-12-06T03:40:08.056Z,28.2
2017-12-06T03:41:10.945Z,28.2
2017-12-06T03:42:10.981Z,28.1
2017-12-06T03:43:11.299Z,28.2
2017-12-06T03:44:08.427Z,28.2
2017-12-06T03:45:11.127Z,28.2
2017-12-06T03:46:11.210Z,28.2
2017-12-06T03:47:11.571Z,28.1
2017-12-06T03:48:11.262Z,28.2
2017-12-06T03:49:11.283Z,28.1
2017-12-06T03:50:11.327Z,28.1
2017-12-06T03:51:11.376Z,28.2
2017-12-06T03:52:08.477Z,28.1
2017-12-06T03:53:08.830Z,28.1
2017-12-06T03:54:14.261Z,28.2
2017-12-06T03:55:11.845Z,28.2
2017-12-06T03:56:08.978Z,28.2
2017-12-06T03:57:11.907Z,28.2
2017-12-06T03:58:08.800Z,28.1
2017-12-06T03:59:12.025Z,28.1
2017-12-06T04:00:09.170Z,28.1
2017-12-06T04:01:12.628Z,28.1
2017-12-06T04:02:09.108Z,28.2
2017-12-06T04:03:11.993Z,28.2
2017-12-06T04:04:12.319Z,28.2
2017-12-06T04:05:09.455Z,28.1
2017-12-06T04:06:09.505Z,28.2
2017-12-06T04:07:12.414Z,28.2
2017-12-06T04:08:12.146Z,28.1
2017-12-06T04:09:09.592Z,28.1
2017-12-06T04:10:09.577Z,28.1
2017-12-06T04:11:12.509Z,28.1
2017-12-06T04:12:12.570Z,28.1
2017-12-06T04:13:14.772Z,28.1
2017-12-06T04:14:09.750Z,28.1
2017-12-06T04:15:12.722Z,28.1
2017-12-06T04:16:09.821Z,28.1
2017-12-06T04:17:12.814Z,28.2
2017-12-06T04:18:09.921Z,28.2
2017-12-06T04:19:09.702Z,28.1
2017-12-06T04:20:12.614Z,28.1
2017-12-06T04:21:12.789Z,28.1
2017-12-06T04:22:10.014Z,28.1
2017-12-06T04:23:13.150Z,28.1
2017-12-06T04:24:10.239Z,28.1
2017-12-06T04:25:12.914Z,28.1
2017-12-06T04:26:12.926Z,28.1
2017-12-06T04:27:10.465Z,28.2
2017-12-06T04:28:10.256Z,28.1
2017-12-06T04:29:13.509Z,28.2
2017-12-06T04:30:10.644Z,28.2
2017-12-06T04:31:13.247Z,28.2
2017-12-06T04:32:10.377Z,28.1
2017-12-06T04:33:10.512Z,28.2
2017-12-06T04:34:10.589Z,28.2
2017-12-06T04:35:13.535Z,28.2
2017-12-06T04:36:11.027Z,28.1
2017-12-06T04:37:11.118Z,28.1
2017-12-06T04:38:14.004Z,28.1
2017-12-06T04:39:10.848Z,28.1
2017-12-06T04:40:13.754Z,28.1
2017-12-06T04:41:10.938Z,28.1
2017-12-06T04:42:14.171Z,28.1
2017-12-06T04:43:14.220Z,28.1
2017-12-06T04:44:11.118Z,28.1
2017-12-06T04:45:11.092Z,28.1
2017-12-06T04:46:14.013Z,28.1
2017-12-06T04:47:11.238Z,28.1
2017-12-06T04:48:14.144Z,28.1
2017-12-06T04:49:11.391Z,28.1
2017-12-06T04:50:11.460Z,28.1
2017-12-06T04:51:11.793Z,28.2
2017-12-06T04:52:11.948Z,28.2
2017-12-06T04:53:14.832Z,28.1
2017-12-06T04:54:11.798Z,28.1
2017-12-06T04:55:14.968Z,28.1
2017-12-06T04:56:11.823Z,28.2
2017-12-06T04:57:11.879Z,28.2
2017-12-06T04:58:14.799Z,28.2
2017-12-06T04:59:11.959Z,28.1
2017-12-06T05:00:12.062Z,28.1
2017-12-06T05:01:12.152Z,28.1
2017-12-06T05:02:15.012Z,28.1
2017-12-06T05:03:12.482Z,28.1
2017-12-06T05:04:12.211Z,28.1
2017-12-06T05:05:15.170Z,28.1
2017-12-06T05:06:12.610Z,28.1
2017-12-06T05:07:15.574Z,28.1
2017-12-06T05:08:12.466Z,28.1
2017-12-06T05:09:12.476Z,28.1
2017-12-06T05:10:12.540Z,28.1
2017-12-06T05:11:12.587Z,28.1
2017-12-06T05:12:12.662Z,28.1
2017-12-06T05:13:15.904Z,28.1
2017-12-06T05:14:15.620Z,28.1
2017-12-06T05:15:13.051Z,28.1
2017-12-06T05:16:15.976Z,28.1
2017-12-06T05:17:15.749Z,28.1
2017-12-06T05:18:15.768Z,28.1
2017-12-06T05:19:13.214Z,28.1
2017-12-06T05:20:12.972Z,28.1
2017-12-06T05:21:15.801Z,28.1
2017-12-06T05:22:16.259Z,28.1
2017-12-06T05:23:15.937Z,28.1
2017-12-06T05:24:13.144Z,28.1
2017-12-06T05:25:16.037Z,28.1
2017-12-06T05:26:16.372Z,28.1
2017-12-06T05:27:16.099Z,28.1
2017-12-06T05:28:16.185Z,28.1
2017-12-06T05:29:16.210Z,28
2017-12-06T05:30:13.647Z,28.1
2017-12-06T05:31:13.672Z,28.1
2017-12-06T05:32:13.435Z,28.1
2017-12-06T05:33:16.631Z,28
2017-12-06T05:34:13.585Z,28
2017-12-06T05:35:13.564Z,28
2017-12-06T05:36:16.452Z,28
2017-12-06T05:37:19.239Z,28
2017-12-06T05:38:16.912Z,28
2017-12-06T05:39:16.535Z,28
2017-12-06T05:40:16.896Z,28
2017-12-06T05:41:13.805Z,28
2017-12-06T05:42:13.805Z,28
2017-12-06T05:43:16.676Z,28.1
2017-12-06T05:44:17.088Z,28.1
2017-12-06T05:45:13.846Z,28.1
2017-12-06T05:46:14.192Z,28.1
2017-12-06T05:47:14.202Z,28.2
2017-12-06T05:48:14.003Z,28.2
2017-12-06T05:49:14.332Z,28.2
2017-12-06T05:50:14.566Z,28.3
2017-12-06T05:51:14.861Z,28.3
2017-12-06T05:52:14.681Z,28.3
2017-12-06T05:53:18.474Z,28.3
2017-12-06T05:54:19.990Z,28.3
2017-12-06T05:55:17.403Z,28.3
2017-12-06T05:56:17.938Z,28.3
2017-12-06T05:57:17.500Z,28.4
2017-12-06T05:58:17.742Z,28.4
2017-12-06T05:59:15.316Z,28.4
2017-12-06T06:00:17.827Z,28.4
2017-12-06T06:01:17.649Z,28.4
2017-12-06T06:02:17.743Z,28.4
2017-12-06T06:03:17.762Z,28.4
2017-12-06T06:04:18.535Z,28.4
2017-12-06T06:05:15.904Z,28.4
2017-12-06T06:06:15.209Z,28.5
2017-12-06T06:07:17.752Z,28.5
2017-12-06T06:08:18.135Z,28.5
2017-12-06T06:09:15.259Z,28.5
2017-12-06T06:10:18.216Z,28.5
2017-12-06T06:11:15.349Z,28.5
2017-12-06T06:12:15.104Z,28.5
2017-12-06T06:13:18.356Z,28.5
2017-12-06T06:14:15.267Z,28.5
2017-12-06T06:15:15.963Z,28.5
2017-12-06T06:16:19.496Z,28.5
2017-12-06T06:17:21.033Z,28.5
2017-12-06T06:18:18.586Z,28.5
2017-12-06T06:19:18.579Z,28.5
2017-12-06T06:20:16.323Z,28.5
2017-12-06T06:21:17.326Z,28.5
2017-12-06T06:22:19.101Z,28.5
2017-12-06T06:23:16.419Z,28.5
2017-12-06T06:24:18.565Z,28.5
2017-12-06T06:25:16.172Z,28.5
2017-12-06T06:26:18.621Z,28.5
2017-12-06T06:27:22.239Z,28.5
2017-12-06T06:28:21.201Z,28.5
2017-12-06T06:29:19.216Z,28.5
2017-12-06T06:30:20.441Z,28.6
2017-12-06T06:31:18.963Z,28.5
2017-12-06T06:32:19.425Z,28.5
2017-12-06T06:33:18.867Z,28.5
2017-12-06T06:34:16.863Z,28.6
2017-12-06T06:35:18.996Z,28.6
2017-12-06T06:36:16.465Z,28.6
2017-12-06T06:37:19.339Z,28.5
2017-12-06T06:38:19.856Z,28.5
2017-12-06T06:39:21.092Z,28.6
2017-12-06T06:40:16.772Z,28.6
2017-12-06T06:41:19.458Z,28.6
2017-12-06T06:42:19.433Z,28.6
2017-12-06T06:43:19.521Z,28.6
2017-12-06T06:44:17.136Z,28.6
2017-12-06T06:45:16.732Z,28.6
2017-12-06T06:46:19.868Z,28.5
2017-12-06T06:47:16.764Z,28.6
2017-12-06T06:48:19.795Z,28.6
2017-12-06T06:49:17.104Z,28.6
2017-12-06T06:50:19.992Z,28.6
2017-12-06T06:51:19.759Z,28.6
2017-12-06T06:52:16.820Z,28.6
2017-12-06T06:53:17.109Z,28.6
2017-12-06T06:54:16.959Z,28.6
2017-12-06T06:55:20.069Z,28.6
2017-12-06T06:56:16.985Z,28.6
2017-12-06T06:57:20.184Z,28.6
2017-12-06T06:58:19.856Z,28.6
2017-12-06T06:59:20.280Z,28.6
2017-12-06T07:00:17.422Z,28.6
2017-12-06T07:01:20.367Z,28.6
2017-12-06T07:02:20.356Z,28.6
2017-12-06T07:03:20.474Z,28.6
2017-12-06T07:04:20.157Z,28.6
2017-12-06T07:05:17.656Z,28.6
2017-12-06T07:06:17.440Z,28.7
2017-12-06T07:07:17.779Z,28.6
2017-12-06T07:08:17.571Z,28.6
2017-12-06T07:09:20.900Z,28.7
2017-12-06T07:10:20.853Z,28.7
2017-12-06T07:11:20.961Z,28.7
2017-12-06T07:12:21.323Z,28.7
2017-12-06T07:13:17.840Z,28.6
2017-12-06T07:14:20.729Z,28.6
2017-12-06T07:15:21.308Z,28.7
2017-12-06T07:16:20.915Z,28.7
2017-12-06T07:17:21.253Z,28.7
2017-12-06T07:18:18.152Z,28.7
2017-12-06T07:19:21.608Z,28.7
2017-12-06T07:20:18.541Z,28.7
2017-12-06T07:21:21.538Z,28.8
2017-12-06T07:22:18.360Z,28.8
2017-12-06T07:23:23.450Z,28.8
2017-12-06T07:24:21.630Z,28.8
2017-12-06T07:25:19.143Z,28.9
2017-12-06T07:26:21.756Z,28.9
2017-12-06T07:27:18.992Z,28.9
2017-12-06T07:28:18.730Z,28.9
2017-12-06T07:29:20.338Z,28.9
2017-12-06T07:30:18.817Z,28.9
2017-12-06T07:31:22.137Z,28.9
2017-12-06T07:32:21.843Z,29
2017-12-06T07:33:19.830Z,29
2017-12-06T07:34:26.392Z,29
2017-12-06T07:35:23.276Z,29
2017-12-06T07:36:22.505Z,29
2017-12-06T07:37:19.652Z,29.1
2017-12-06T07:38:22.411Z,29.1
2017-12-06T07:39:19.520Z,29.1
2017-12-06T07:40:19.189Z,29.1
2017-12-06T07:41:22.160Z,29.1
2017-12-06T07:42:22.483Z,29.1
2017-12-06T07:43:20.352Z,29.2
2017-12-06T07:44:20.027Z,29.2
2017-12-06T07:45:20.482Z,29.2
2017-12-06T07:46:19.857Z,29.2
2017-12-06T07:47:20.251Z,29.3
2017-12-06T07:48:20.166Z,29.3
2017-12-06T07:49:22.800Z,29.3
2017-12-06T07:50:23.237Z,29.3
2017-12-06T07:51:23.305Z,29.3
2017-12-06T07:52:25.402Z,29.4
2017-12-06T07:53:23.407Z,29.4
2017-12-06T07:54:23.025Z,29.4
2017-12-06T07:55:23.120Z,29.4
2017-12-06T07:56:20.264Z,29.4
2017-12-06T07:57:23.191Z,29.4
2017-12-06T07:58:26.813Z,29.4
2017-12-06T07:59:23.447Z,29.5
2017-12-06T08:00:20.456Z,29.5
2017-12-06T08:01:24.524Z,29.4
2017-12-06T08:02:20.905Z,29.4
2017-12-06T08:03:25.733Z,29.5
2017-12-06T08:04:23.635Z,29.5
2017-12-06T08:05:24.122Z,29.5
2017-12-06T08:06:29.062Z,29.5
2017-12-06T08:07:23.654Z,29.5
2017-12-06T08:08:20.935Z,29.6
2017-12-06T08:09:21.203Z,29.6
2017-12-06T08:10:21.274Z,29.6
2017-12-06T08:11:21.509Z,29.6
2017-12-06T08:12:24.324Z,29.6
2017-12-06T08:13:21.479Z,29.7
2017-12-06T08:14:24.439Z,29.7
2017-12-06T08:15:22.146Z,29.7
2017-12-06T08:16:24.666Z,29.7
2017-12-06T08:17:23.823Z,29.7
2017-12-06T08:18:25.333Z,29.8
2017-12-06T08:19:21.828Z,29.8
2017-12-06T08:20:21.696Z,29.8
2017-12-06T08:21:24.399Z,29.8
2017-12-06T08:22:24.409Z,29.8
2017-12-06T08:23:21.555Z,29.8
2017-12-06T08:24:21.933Z,29.8
2017-12-06T08:25:21.966Z,29.9
2017-12-06T08:26:21.655Z,29.9
2017-12-06T08:27:24.554Z,29.9
2017-12-06T08:28:22.006Z,29.9
2017-12-06T08:29:22.118Z,29.9
2017-12-06T08:30:24.579Z,29.9
2017-12-06T08:31:24.802Z,29.9
2017-12-06T08:32:25.161Z,29.9
2017-12-06T08:33:28.642Z,29.9
2017-12-06T08:34:25.646Z,29.9
2017-12-06T08:35:22.359Z,30
2017-12-06T08:36:25.400Z,30
2017-12-06T08:37:22.249Z,30
2017-12-06T08:38:22.576Z,29.9
2017-12-06T08:39:23.053Z,30
2017-12-06T08:40:22.792Z,30
2017-12-06T08:41:22.757Z,30
2017-12-06T08:42:25.726Z,30
2017-12-06T08:43:26.089Z,30
2017-12-06T08:44:22.883Z,30
2017-12-06T08:45:25.894Z,30.1
2017-12-06T08:46:23.912Z,30.1
2017-12-06T08:47:25.947Z,30.1
2017-12-06T08:48:22.756Z,30.1
2017-12-06T08:49:22.837Z,30.1
2017-12-06T08:50:26.056Z,30.1
2017-12-06T08:51:27.501Z,30.1
2017-12-06T08:52:24.356Z,30.1
2017-12-06T08:53:23.009Z,30.2
2017-12-06T08:54:24.637Z,30.2
2017-12-06T08:55:24.199Z,30.2
2017-12-06T08:56:26.764Z,30.2
2017-12-06T08:57:23.484Z,30.2
2017-12-06T08:58:29.488Z,30.3
2017-12-06T08:59:26.368Z,30.2
2017-12-06T09:00:23.631Z,30.3
2017-12-06T09:01:23.599Z,30.3
2017-12-06T09:02:23.413Z,30.3
2017-12-06T09:03:23.799Z,30.3
2017-12-06T09:04:23.742Z,30.3
2017-12-06T09:05:26.907Z,30.3
2017-12-06T09:06:27.014Z,30.4
2017-12-06T09:07:26.931Z,30.4
2017-12-06T09:08:24.203Z,30.3
2017-12-06T09:09:27.523Z,30.4
2017-12-06T09:10:27.217Z,30.4
2017-12-06T09:11:24.355Z,30.4
2017-12-06T09:12:24.287Z,30.4
2017-12-06T09:13:24.272Z,30.4
2017-12-06T09:14:24.125Z,30.5
2017-12-06T09:15:27.425Z,30.4
2017-12-06T09:16:29.446Z,30.5
2017-12-06T09:17:24.776Z,30.5
2017-12-06T09:18:27.810Z,30.5
2017-12-06T09:19:27.460Z,30.5
2017-12-06T09:20:27.355Z,30.5
2017-12-06T09:21:24.508Z,30.5
2017-12-06T09:22:27.436Z,30.6
2017-12-06T09:23:24.794Z,30.6
2017-12-06T09:24:24.651Z,30.6
2017-12-06T09:25:24.914Z,30.6
2017-12-06T09:26:27.788Z,30.6
2017-12-06T09:27:27.838Z,30.6
2017-12-06T09:28:25.123Z,30.6
2017-12-06T09:29:30.903Z,30.6
2017-12-06T09:30:25.244Z,30.6
2017-12-06T09:31:27.933Z,30.6
2017-12-06T09:32:28.211Z,30.6
2017-12-06T09:33:27.177Z,30.6
2017-12-06T09:34:28.051Z,30.6
2017-12-06T09:35:25.644Z,30.5
2017-12-06T09:36:25.704Z,30.6
2017-12-06T09:37:25.438Z,30.6
2017-12-06T09:38:25.976Z,30.6
2017-12-06T09:39:25.790Z,30.5
2017-12-06T09:40:25.857Z,30.5
2017-12-06T09:41:29.235Z,30.6
2017-12-06T09:42:25.809Z,30.6
2017-12-06T09:43:28.849Z,30.6
2017-12-06T09:44:29.735Z,30.6
2017-12-06T09:45:26.127Z,30.6
2017-12-06T09:46:29.993Z,30.6
2017-12-06T09:47:29.236Z,30.6
2017-12-06T09:48:26.353Z,30.7
2017-12-06T09:49:29.910Z,30.7
2017-12-06T09:50:26.586Z,30.7
2017-12-06T09:51:26.259Z,30.7
2017-12-06T09:52:27.293Z,30.7
2017-12-06T09:53:29.138Z,30.7
2017-12-06T09:54:26.757Z,30.8
2017-12-06T09:55:29.466Z,30.8
2017-12-06T09:56:26.478Z,30.8
2017-12-06T09:57:26.640Z,30.8
2017-12-06T09:58:29.765Z,30.8
2017-12-06T09:59:29.860Z,30.8
2017-12-06T10:00:30.437Z,30.8
2017-12-06T10:01:30.346Z,30.8
2017-12-06T10:02:29.651Z,30.9
2017-12-06T10:03:29.459Z,30.9
2017-12-06T10:04:31.103Z,30.9
2017-12-06T10:05:32.769Z,30.8
2017-12-06T10:06:27.343Z,30.9
2017-12-06T10:07:27.402Z,30.9
2017-12-06T10:08:32.528Z,30.9
2017-12-06T10:09:29.266Z,30.9
2017-12-06T10:10:27.302Z,31
2017-12-06T10:11:31.202Z,31
2017-12-06T10:12:30.177Z,31
2017-12-06T10:13:33.086Z,30.8
2017-12-06T10:14:45.769Z,31
2017-12-06T10:15:37.080Z,31
2017-12-06T10:16:37.354Z,31
2017-12-06T10:17:27.590Z,31
2017-12-06T10:18:28.400Z,30.9
2017-12-06T10:19:29.732Z,30.7
2017-12-06T10:20:29.026Z,30.4
2017-12-06T10:21:29.431Z,29.9
2017-12-06T10:22:31.106Z,29.3
2017-12-06T10:23:27.689Z,28.9
2017-12-06T10:24:30.927Z,28.4
2017-12-06T10:25:28.260Z,28
2017-12-06T10:26:28.158Z,27.6
2017-12-06T10:27:28.460Z,27.3
2017-12-06T10:28:30.912Z,27.1
2017-12-06T10:29:31.167Z,26.9
2017-12-06T10:30:31.216Z,26.8
2017-12-06T10:31:28.566Z,26.7
2017-12-06T10:32:28.195Z,26.5
2017-12-06T10:33:29.521Z,26.4
2017-12-06T10:34:34.706Z,26.2
2017-12-06T10:35:28.419Z,26.1
2017-12-06T10:36:29.356Z,25.9
2017-12-06T10:37:28.437Z,25.8
2017-12-06T10:38:30.636Z,25.7
2017-12-06T10:39:31.400Z,25.7
2017-12-06T10:41:36.224Z,25.7
2017-12-06T10:42:38.708Z,25.6
2017-12-06T10:43:38.972Z,25.6
2017-12-06T10:44:38.127Z,25.7
2017-12-06T10:45:40.068Z,25.8
2017-12-06T10:46:36.459Z,25.9
2017-12-06T10:47:39.479Z,25.9
2017-12-06T10:48:38.797Z,25.9
2017-12-06T10:49:41.354Z,26
2017-12-06T10:50:39.389Z,26
2017-12-06T10:51:36.611Z,26.1
2017-12-06T10:52:40.710Z,26.2
2017-12-06T10:53:39.498Z,26.2
2017-12-06T10:54:37.110Z,26.2
2017-12-06T10:55:36.431Z,26.3
2017-12-06T10:56:36.915Z,26.3
2017-12-06T10:57:39.384Z,26.3
2017-12-06T10:58:42.674Z,26.4
2017-12-06T10:59:36.855Z,26.4
2017-12-06T11:00:39.968Z,26.4
2017-12-06T11:01:40.114Z,26.3
2017-12-06T11:02:41.460Z,26.2
2017-12-06T11:03:38.835Z,26.1
2017-12-06T11:04:37.473Z,26.1
2017-12-06T11:05:41.356Z,26.1
2017-12-06T11:06:39.964Z,26
2017-12-06T11:07:38.076Z,26
2017-12-06T11:08:44.113Z,26
2017-12-06T11:09:43.839Z,26
2017-12-06T11:10:37.514Z,25.9
2017-12-06T11:11:37.733Z,26
2017-12-06T11:12:40.764Z,26
2017-12-06T11:13:39.528Z,25.9
2017-12-06T11:14:37.658Z,25.8
2017-12-06T11:15:40.504Z,25.8
2017-12-06T11:16:40.811Z,25.7
2017-12-06T11:17:37.674Z,25.7
2017-12-06T11:18:40.276Z,25.6
2017-12-06T11:19:40.685Z,25.6
2017-12-06T11:20:38.136Z,25.5
2017-12-06T11:21:42.065Z,25.5
2017-12-06T11:22:43.240Z,25.5
2017-12-06T11:23:39.210Z,25.6
2017-12-06T11:24:42.469Z,25.7
2017-12-06T11:25:41.728Z,25.6
2017-12-06T11:26:40.212Z,25.6
2017-12-06T11:27:47.378Z,25.5
2017-12-06T11:28:43.994Z,25.5
2017-12-06T11:29:44.458Z,25.5
2017-12-06T11:30:40.679Z,25.4
2017-12-06T11:31:41.552Z,25.3
2017-12-06T11:32:42.147Z,25.2
2017-12-06T11:33:40.980Z,25.2
2017-12-06T11:34:44.232Z,25.2
2017-12-06T11:35:39.451Z,25
2017-12-06T11:36:41.737Z,25
2017-12-06T11:37:40.028Z,25
2017-12-06T11:38:39.582Z,25
2017-12-06T11:39:39.248Z,25
2017-12-06T11:40:39.913Z,25.1
2017-12-06T11:41:43.234Z,25.2
2017-12-06T11:42:43.412Z,25.3
2017-12-06T11:43:40.379Z,25.3
2017-12-06T11:44:40.123Z,25.3
2017-12-06T11:45:44.817Z,25.1
2017-12-06T11:46:42.824Z,25.4
2017-12-06T11:47:42.494Z,25.4
2017-12-06T11:48:39.961Z,25.4
2017-12-06T11:49:43.433Z,25.5
2017-12-06T11:50:40.308Z,25.5
2017-12-06T11:51:48.336Z,25.4
2017-12-06T11:52:50.884Z,25.4
2017-12-06T11:53:43.621Z,25.3
2017-12-06T11:54:42.662Z,25.2
2017-12-06T11:55:40.935Z,25.1
2017-12-06T11:56:43.100Z,25.1
2017-12-06T11:57:43.440Z,25.2
2017-12-06T11:58:40.620Z,25.1
2017-12-06T11:59:40.915Z,25.1
2017-12-06T12:00:44.321Z,25.2
2017-12-06T12:01:43.628Z,25.1
2017-12-06T12:02:40.683Z,25
2017-12-06T12:03:41.656Z,25
2017-12-06T12:04:41.052Z,25
2017-12-06T12:05:43.653Z,24.9
2017-12-06T12:06:40.435Z,25
2017-12-06T12:07:44.866Z,25
2017-12-06T12:08:40.815Z,25.1
2017-12-06T12:09:43.714Z,25.1
2017-12-06T12:10:46.531Z,25.1
2017-12-06T12:11:41.047Z,25.1
2017-12-06T12:12:44.160Z,25.1
2017-12-06T12:13:42.060Z,25.2
2017-12-06T12:14:41.142Z,25.3
2017-12-06T12:15:41.174Z,25.3
2017-12-06T12:16:46.795Z,25.4
2017-12-06T12:17:41.968Z,25.5
2017-12-06T12:18:44.241Z,25.5
2017-12-06T12:19:41.617Z,25.5
2017-12-06T12:20:44.022Z,25.4
2017-12-06T12:21:44.392Z,25.4
2017-12-06T12:22:41.306Z,25.4
2017-12-06T12:23:44.785Z,25.4
2017-12-06T12:24:41.456Z,25.4
2017-12-06T12:25:44.808Z,25.4
2017-12-06T12:26:45.355Z,25.4
2017-12-06T12:27:43.387Z,25.4
2017-12-06T12:28:47.783Z,25.3
2017-12-06T12:29:49.950Z,25.3
2017-12-06T12:30:43.423Z,25.2
2017-12-06T12:31:45.634Z,25.1
2017-12-06T12:32:42.043Z,25.1
2017-12-06T12:33:43.017Z,25.1
2017-12-06T12:34:47.219Z,25.1
2017-12-06T12:35:44.839Z,25.2
2017-12-06T12:36:45.018Z,25.2
2017-12-06T12:37:45.116Z,25.3
2017-12-06T12:38:45.086Z,25.4
2017-12-06T12:39:45.913Z,25.4
2017-12-06T12:40:45.394Z,25.3
2017-12-06T12:41:45.880Z,25.3
2017-12-06T12:42:44.313Z,25.2
2017-12-06T12:43:43.545Z,25.1
2017-12-06T12:44:43.793Z,25
2017-12-06T12:45:42.783Z,25
2017-12-06T12:46:43.151Z,24.8
2017-12-06T12:47:45.351Z,24.9
2017-12-06T12:48:45.468Z,24.9
2017-12-06T12:49:42.953Z,24.9
2017-12-06T12:50:43.013Z,24.9
2017-12-06T12:51:45.717Z,25
2017-12-06T12:52:42.715Z,25
2017-12-06T12:53:42.758Z,25
2017-12-06T12:54:46.005Z,25
2017-12-06T12:55:42.807Z,24.9
2017-12-06T12:56:43.070Z,24.9
2017-12-06T12:57:42.826Z,24.9
2017-12-06T12:58:43.291Z,24.9
2017-12-06T12:59:43.267Z,24.9
2017-12-06T13:00:46.631Z,25
2017-12-06T13:01:43.852Z,25
2017-12-06T13:02:43.689Z,25
2017-12-06T13:03:43.074Z,25.1
2017-12-06T13:04:43.153Z,25.1
2017-12-06T13:05:46.399Z,25.1
2017-12-06T13:06:46.162Z,25.1
2017-12-06T13:07:44.087Z,25.2
2017-12-06T13:08:46.834Z,25.2
2017-12-06T13:09:48.254Z,25.3
2017-12-06T13:10:46.913Z,25.3
2017-12-06T13:11:43.487Z,25.3
2017-12-06T13:12:43.998Z,25.3
2017-12-06T13:13:44.750Z,25.4
2017-12-06T13:14:49.458Z,25.4
2017-12-06T13:15:48.381Z,25.3
2017-12-06T13:16:47.129Z,25.2
2017-12-06T13:17:44.067Z,25.1
2017-12-06T13:18:47.711Z,25
2017-12-06T13:19:45.684Z,24.9
2017-12-06T13:20:44.262Z,25
2017-12-06T13:21:44.022Z,24.9
2017-12-06T13:22:47.308Z,24.8
2017-12-06T13:23:44.379Z,24.7
2017-12-06T13:24:47.458Z,24.7